Terminal Aerodrome Forecast
Issued by NWS Upton, NY

Home | Current Version | Previous Version | Text Only | Print | Product List | Glossary On
Versions: 1 2 3 4 5 6 7 8 9 10 11 12 13 14 15 16 17 18 19 20 21 22 23 24 25 26 27 28 29 30 31 32
000
FTUS41 KOKX 171139
TAFJFK
TAF
KJFK 171139Z 1712/1818 36005KT P6SM SCT045 BKN070
     FM172000 VRB05KT P6SM FEW045 OVC150
     FM180400 VRB03KT P6SM SCT025 OVC080
     FM180700 VRB03KT P6SM BKN020
     FM181500 26007KT P6SM SCT020 BKN080=

USA.gov is the U.S. government's official web portal to all federal, state and local government web resources and services.